createdAt,value
2019-05-15T00:04:03.798Z,2.70
2019-05-15T00:09:10.435Z,2.63
2019-05-15T00:14:18.260Z,2.54
2019-05-15T00:19:24.912Z,2.44
2019-05-15T00:24:31.450Z,2.44
2019-05-15T00:29:38.342Z,2.40
2019-05-15T00:34:45.214Z,2.21
2019-05-15T00:39:51.777Z,2.12
2019-05-15T00:44:58.532Z,2.11
2019-05-15T00:50:05.876Z,2.18
2019-05-15T00:55:13.313Z,2.28
2019-05-15T01:00:41.833Z,2.29
2019-05-15T01:05:48.362Z,2.37
2019-05-15T01:10:54.981Z,2.27
2019-05-15T01:16:02.631Z,2.14
2019-05-15T01:21:09.257Z,2.04
2019-05-15T01:26:15.874Z,1.97
2019-05-15T01:31:22.474Z,1.97
2019-05-15T01:36:29.128Z,1.93
2019-05-15T01:41:35.627Z,1.74
2019-05-15T01:46:42.160Z,1.80
2019-05-15T01:51:48.757Z,1.86
2019-05-15T01:56:55.292Z,1.80
2019-05-15T02:02:01.825Z,1.85
2019-05-15T02:07:08.429Z,1.86
2019-05-15T02:12:14.971Z,1.83
2019-05-15T02:17:21.421Z,1.82
2019-05-15T02:22:28.365Z,1.85
2019-05-15T02:27:35.082Z,1.85
2019-05-15T02:32:41.619Z,1.70
2019-05-15T02:37:49.055Z,1.73
2019-05-15T02:42:58.959Z,1.71
2019-05-15T02:48:04.120Z,1.70
2019-05-15T02:53:10.673Z,1.77
2019-05-15T02:58:21.413Z,1.80
2019-05-15T03:03:25.631Z,1.92
2019-05-15T03:08:33.305Z,1.96
2019-05-15T03:13:39.921Z,2.00
2019-05-15T03:18:49.820Z,2.09
2019-05-15T03:23:54.814Z,1.99
2019-05-15T03:29:01.401Z,2.08
2019-05-15T03:34:20.032Z,2.21
2019-05-15T03:39:19.048Z,2.26
2019-05-15T03:44:24.783Z,2.35
2019-05-15T03:49:31.398Z,2.47
2019-05-15T03:54:39.183Z,2.56
2019-05-15T03:59:48.918Z,2.65
2019-05-15T04:04:57.181Z,2.68
2019-05-15T04:10:02.902Z,2.82
2019-05-15T04:15:10.851Z,2.77
2019-05-15T04:20:20.016Z,2.91
2019-05-15T04:25:29.684Z,2.91
2019-05-15T04:30:38.942Z,2.94
2019-05-15T04:35:44.783Z,2.92
2019-05-15T04:40:51.253Z,2.87
2019-05-15T04:45:59.124Z,3.08
2019-05-15T04:51:09.459Z,3.26
2019-05-15T04:56:14.484Z,3.30
2019-05-15T05:01:21.095Z,3.38
2019-05-15T05:06:29.437Z,3.31
2019-05-15T05:11:38.322Z,3.29
2019-05-15T05:16:44.638Z,3.56
2019-05-15T05:21:51.259Z,3.70
2019-05-15T05:26:58.196Z,3.91
2019-05-15T05:32:04.875Z,3.95
2019-05-15T05:37:11.480Z,4.13
2019-05-15T05:42:18.511Z,3.98
2019-05-15T05:47:25.214Z,3.89
2019-05-15T05:52:34.925Z,4.43
2019-05-15T05:57:43.553Z,4.24
2019-05-15T06:02:52.327Z,4.41
2019-05-15T06:07:58.370Z,4.43
2019-05-15T06:13:04.987Z,4.69
2019-05-15T06:18:11.741Z,4.87
2019-05-15T06:23:23.631Z,5.19
2019-05-15T06:28:28.986Z,5.20
2019-05-15T06:33:34.872Z,5.23
2019-05-15T06:38:41.419Z,5.41
2019-05-15T06:43:48.470Z,5.30
2019-05-15T06:48:55.067Z,5.32
2019-05-15T06:54:01.647Z,5.67
2019-05-15T06:59:08.747Z,5.75
2019-05-15T07:04:17.997Z,6.08
2019-05-15T07:09:23.748Z,6.05
2019-05-15T07:14:30.411Z,6.26
2019-05-15T07:19:39.224Z,6.29
2019-05-15T07:24:47.663Z,6.26
2019-05-15T07:29:53.663Z,6.51
2019-05-15T07:35:00.260Z,6.61
2019-05-15T07:40:08.445Z,6.97
2019-05-15T07:45:19.814Z,6.76
2019-05-15T07:50:25.314Z,7.04
2019-05-15T07:55:31.938Z,7.14
2019-05-15T08:00:39.493Z,6.90
2019-05-15T08:05:56.041Z,6.82
2019-05-15T08:10:54.739Z,6.94
2019-05-15T08:16:02.454Z,7.07
2019-05-15T08:21:09.219Z,7.03
2019-05-15T08:26:17.777Z,7.36
2019-05-15T08:31:24.042Z,7.49
2019-05-15T08:36:31.382Z,7.69
2019-05-15T08:41:39.057Z,8.01
2019-05-15T08:46:47.986Z,8.09
2019-05-15T08:51:54.089Z,8.17
2019-05-15T08:57:00.708Z,8.31
2019-05-15T09:02:07.936Z,8.67
2019-05-15T09:07:14.787Z,8.91
2019-05-15T09:12:23.207Z,8.90
2019-05-15T09:17:29.897Z,9.27
2019-05-15T09:22:38.269Z,9.53
2019-05-15T09:27:45.234Z,9.96
2019-05-15T09:32:51.853Z,9.57
2019-05-15T09:37:58.469Z,9.01
2019-05-15T09:43:05.147Z,8.70
2019-05-15T09:48:14.658Z,8.61
2019-05-15T09:53:20.082Z,8.85
2019-05-15T09:58:26.535Z,9.17
2019-05-15T10:03:33.136Z,8.93
2019-05-15T10:08:40.051Z,8.98
2019-05-15T10:13:46.835Z,9.01
2019-05-15T10:18:53.392Z,9.02
2019-05-15T10:24:00.028Z,8.73
2019-05-15T10:29:09.060Z,8.36
2019-05-15T10:34:14.930Z,8.41
2019-05-15T10:39:21.630Z,8.38
2019-05-15T10:44:29.048Z,8.49
2019-05-15T10:49:35.815Z,8.36
2019-05-15T10:54:42.423Z,8.26
2019-05-15T10:59:49.087Z,8.30
2019-05-15T11:04:57.752Z,8.20
2019-05-15T11:10:03.918Z,8.44
2019-05-15T11:15:11.579Z,8.31
2019-05-15T11:20:19.576Z,8.52
2019-05-15T11:25:29.981Z,8.43
2019-05-15T11:30:35.555Z,8.45
2019-05-15T11:35:57.009Z,8.36
2019-05-15T11:40:50.594Z,8.51
2019-05-15T11:45:58.882Z,8.59
2019-05-15T11:51:05.692Z,8.75
2019-05-15T11:56:12.401Z,8.63
2019-05-15T12:01:19.736Z,8.59
2019-05-15T12:06:28.636Z,8.68
2019-05-15T12:11:37.349Z,8.76
2019-05-15T12:17:01.237Z,8.88
2019-05-15T12:21:51.245Z,8.90
2019-05-15T12:32:25.172Z,8.80
2019-05-15T12:37:15.692Z,8.72
2019-05-15T13:02:55.672Z,8.73
2019-05-15T13:08:02.281Z,8.84
2019-05-15T13:13:09.883Z,8.98
2019-05-15T13:18:18.055Z,9.12
2019-05-15T13:23:24.780Z,9.17
2019-05-15T13:28:31.337Z,9.30
2019-05-15T13:33:38.629Z,9.38
2019-05-15T13:44:13.710Z,9.84
2019-05-15T13:49:20.324Z,9.63
2019-05-15T13:54:28.576Z,9.73
2019-05-15T13:59:35.053Z,9.82
2019-05-15T14:04:41.699Z,9.59
2019-05-15T14:09:48.442Z,9.78
2019-05-15T14:14:55.060Z,9.79
2019-05-15T14:20:01.682Z,10.13
2019-05-15T14:25:09.620Z,10.28
2019-05-15T14:30:18.160Z,10.29
2019-05-15T14:35:24.810Z,10.31
2019-05-15T14:40:31.451Z,10.09
2019-05-15T14:45:38.890Z,9.97
2019-05-15T14:50:47.566Z,10.03
2019-05-15T14:55:53.981Z,10.03
2019-05-15T15:01:02.954Z,9.81
2019-05-15T15:06:08.957Z,9.85
2019-05-15T15:11:17.811Z,9.62
2019-05-15T15:16:24.060Z,9.68
2019-05-15T15:21:30.542Z,9.58
2019-05-15T15:26:39.086Z,9.44
2019-05-15T15:31:45.245Z,9.30
2019-05-15T15:36:51.851Z,9.34
2019-05-15T15:41:58.429Z,9.30
2019-05-15T15:47:05.038Z,9.34
2019-05-15T15:52:11.633Z,9.21
2019-05-15T15:57:19.198Z,9.19
2019-05-15T16:02:27.963Z,9.06
2019-05-15T16:07:34.285Z,9.03
2019-05-15T16:12:40.891Z,8.87
2019-05-15T16:17:48.774Z,8.82
2019-05-15T16:22:55.619Z,8.76
2019-05-15T16:28:02.152Z,8.66
2019-05-15T16:33:09.898Z,8.64
2019-05-15T16:38:19.033Z,8.58
2019-05-15T16:43:25.025Z,8.53
2019-05-15T16:48:31.634Z,8.53
2019-05-15T16:53:38.334Z,8.52
2019-05-15T16:58:45.054Z,8.42
2019-05-15T17:03:51.677Z,8.38
2019-05-15T17:08:58.467Z,8.35
2019-05-15T17:14:05.088Z,8.39
2019-05-15T17:19:11.749Z,8.29
2019-05-15T17:24:18.470Z,8.27
2019-05-15T17:29:25.040Z,8.26
2019-05-15T17:34:31.579Z,8.25
2019-05-15T17:39:41.415Z,8.24
2019-05-15T17:44:48.797Z,8.22
2019-05-15T17:49:55.342Z,8.20
2019-05-15T17:55:04.659Z,8.16
2019-05-15T18:00:13.073Z,8.11
2019-05-15T18:05:19.916Z,8.13
2019-05-15T18:10:27.989Z,8.07
2019-05-15T18:15:34.744Z,8.03
2019-05-15T18:20:41.290Z,7.92
2019-05-15T18:25:49.218Z,7.89
2019-05-15T18:30:58.827Z,7.85
2019-05-15T18:36:08.612Z,7.81
2019-05-15T18:41:15.008Z,7.79
2019-05-15T18:46:21.542Z,7.76
2019-05-15T18:51:28.198Z,7.73
2019-05-15T18:56:34.869Z,7.71
2019-05-15T19:01:41.419Z,7.67
2019-05-15T19:06:47.895Z,7.66
2019-05-15T19:11:54.352Z,7.61
2019-05-15T19:17:00.896Z,7.59
2019-05-15T19:22:07.880Z,7.58
2019-05-15T19:27:14.506Z,7.54
2019-05-15T19:32:21.217Z,7.54
2019-05-15T19:37:28.778Z,7.48
2019-05-15T19:42:38.097Z,7.47
2019-05-15T19:47:44.102Z,7.47
2019-05-15T19:52:50.645Z,7.46
2019-05-15T19:57:58.843Z,7.44
2019-05-15T20:03:08.236Z,7.38
2019-05-15T20:08:14.252Z,7.37
2019-05-15T20:13:20.853Z,7.38
2019-05-15T20:18:27.967Z,7.36
2019-05-15T20:23:38.093Z,7.30
2019-05-15T20:28:45.010Z,7.24
2019-05-15T20:34:02.413Z,7.24
2019-05-15T20:39:00.055Z,7.21
2019-05-15T20:44:08.690Z,7.24
2019-05-15T20:49:14.904Z,7.07
2019-05-15T20:54:21.693Z,7.15
2019-05-15T20:59:28.584Z,7.19
2019-05-15T21:04:35.159Z,7.18
2019-05-15T21:09:41.767Z,7.20
2019-05-15T21:14:48.467Z,7.15
2019-05-15T21:19:58.317Z,7.19
2019-05-15T21:25:05.277Z,7.19
2019-05-15T21:30:20.852Z,7.20
2019-05-15T21:35:27.758Z,7.22
2019-05-15T21:40:35.752Z,7.20
2019-05-15T21:45:42.300Z,7.22
2019-05-15T21:50:48.891Z,7.20
2019-05-15T21:55:55.490Z,7.17
2019-05-15T22:01:02.434Z,7.23
2019-05-15T22:06:10.893Z,7.22
2019-05-15T22:11:18.706Z,7.21
2019-05-15T22:16:25.829Z,7.21
2019-05-15T22:21:32.475Z,7.21
2019-05-15T22:26:39.010Z,7.22
2019-05-15T22:31:48.116Z,7.18
2019-05-15T22:36:54.307Z,7.16
2019-05-15T22:42:00.941Z,7.16
2019-05-15T22:47:07.455Z,7.22
2019-05-15T22:52:14.063Z,7.24
2019-05-15T22:57:20.832Z,7.23
2019-05-15T23:02:27.553Z,7.25
2019-05-15T23:07:34.075Z,7.22
2019-05-15T23:12:40.682Z,7.23
2019-05-15T23:17:48.747Z,7.22
2019-05-15T23:22:58.399Z,7.21
2019-05-15T23:28:05.456Z,7.23
2019-05-15T23:33:12.061Z,7.21
2019-05-15T23:38:18.683Z,7.20
2019-05-15T23:43:25.297Z,7.18
2019-05-15T23:48:31.899Z,7.21
2019-05-15T23:53:38.525Z,7.18
2019-05-15T23:58:44.899Z,7.21
